sensor_id;sensor_type;location;lat;lon;timestamp;P1;durP1;ratioP1;P2;durP2;ratioP2
9541;SDS011;4809;48.224;8.572;2024-03-17T17:28:58;4.03;;;1.98;;
9541;SDS011;4809;48.224;8.572;2024-03-17T17:31:25;3.63;;;2.10;;
9541;SDS011;4809;48.224;8.572;2024-03-17T17:33:52;3.30;;;1.88;;
9541;SDS011;4809;48.224;8.572;2024-03-17T17:36:18;4.07;;;1.83;;
9541;SDS011;4809;48.224;8.572;2024-03-17T17:38:43;4.43;;;2.10;;
9541;SDS011;4809;48.224;8.572;2024-03-17T17:41:09;4.95;;;1.90;;
9541;SDS011;4809;48.224;8.572;2024-03-17T17:43:36;3.53;;;1.88;;
9541;SDS011;4809;48.224;8.572;2024-03-17T17:46:06;3.47;;;1.73;;
9541;SDS011;4809;48.224;8.572;2024-03-17T17:48:35;4.40;;;2.00;;
9541;SDS011;4809;48.224;8.572;2024-03-17T17:51:05;4.53;;;2.13;;
9541;SDS011;4809;48.224;8.572;2024-03-17T17:53:31;4.65;;;1.80;;
9541;SDS011;4809;48.224;8.572;2024-03-17T17:55:57;4.15;;;1.85;;
9541;SDS011;4809;48.224;8.572;2024-03-17T17:58:22;4.35;;;2.20;;
9541;SDS011;4809;48.224;8.572;2024-03-17T18:00:48;4.00;;;2.13;;
9541;SDS011;4809;48.224;8.572;2024-03-17T18:03:14;2.85;;;1.90;;
9541;SDS011;4809;48.224;8.572;2024-03-17T18:05:40;3.60;;;1.83;;
9541;SDS011;4809;48.224;8.572;2024-03-17T18:08:05;3.15;;;1.95;;
9541;SDS011;4809;48.224;8.572;2024-03-17T18:10:36;4.15;;;2.00;;
9541;SDS011;4809;48.224;8.572;2024-03-17T18:13:02;4.57;;;2.13;;
9541;SDS011;4809;48.224;8.572;2024-03-17T18:15:28;3.13;;;2.10;;
9541;SDS011;4809;48.224;8.572;2024-03-17T18:17:54;5.72;;;2.20;;
9541;SDS011;4809;48.224;8.572;2024-03-17T18:20:19;3.55;;;2.08;;
9541;SDS011;4809;48.224;8.572;2024-03-17T18:22:45;3.33;;;2.03;;
9541;SDS011;4809;48.224;8.572;2024-03-17T18:25:10;4.35;;;2.30;;
9541;SDS011;4809;48.224;8.572;2024-03-17T18:27:37;3.35;;;2.17;;
9541;SDS011;4809;48.224;8.572;2024-03-17T18:30:03;4.43;;;2.70;;
9541;SDS011;4809;48.224;8.572;2024-03-17T18:32:29;4.95;;;3.30;;
9541;SDS011;4809;48.224;8.572;2024-03-17T18:34:55;4.75;;;2.60;;
9541;SDS011;4809;48.224;8.572;2024-03-17T18:37:21;3.67;;;2.50;;
9541;SDS011;4809;48.224;8.572;2024-03-17T18:39:47;5.25;;;2.67;;
9541;SDS011;4809;48.224;8.572;2024-03-17T18:42:12;5.05;;;2.53;;
9541;SDS011;4809;48.224;8.572;2024-03-17T18:44:38;3.92;;;2.53;;
9541;SDS011;4809;48.224;8.572;2024-03-17T18:47:05;4.93;;;2.88;;
9541;SDS011;4809;48.224;8.572;2024-03-17T18:49:30;4.15;;;3.10;;
9541;SDS011;4809;48.224;8.572;2024-03-17T18:51:56;3.83;;;2.92;;
9541;SDS011;4809;48.224;8.572;2024-03-17T18:54:22;6.50;;;3.45;;
9541;SDS011;4809;48.224;8.572;2024-03-17T18:56:47;4.70;;;2.85;;
9541;SDS011;4809;48.224;8.572;2024-03-17T18:59:13;5.93;;;3.28;;
9541;SDS011;4809;48.224;8.572;2024-03-17T19:01:40;7.10;;;3.42;;
9541;SDS011;4809;48.224;8.572;2024-03-17T19:04:05;4.07;;;2.90;;
9541;SDS011;4809;48.224;8.572;2024-03-17T19:06:31;3.50;;;2.85;;
9541;SDS011;4809;48.224;8.572;2024-03-17T19:08:57;6.88;;;3.17;;
9541;SDS011;4809;48.224;8.572;2024-03-17T19:11:22;5.70;;;3.00;;
9541;SDS011;4809;48.224;8.572;2024-03-17T19:13:48;6.00;;;2.88;;
9541;SDS011;4809;48.224;8.572;2024-03-17T19:16:13;5.70;;;3.20;;
9541;SDS011;4809;48.224;8.572;2024-03-17T19:18:42;5.75;;;3.00;;
9541;SDS011;4809;48.224;8.572;2024-03-17T19:23:35;4.57;;;3.30;;
9541;SDS011;4809;48.224;8.572;2024-03-17T19:26:04;4.70;;;2.88;;
9541;SDS011;4809;48.224;8.572;2024-03-17T19:28:34;3.78;;;3.20;;
9541;SDS011;4809;48.224;8.572;2024-03-17T19:31:00;3.53;;;2.80;;
9541;SDS011;4809;48.224;8.572;2024-03-17T19:33:29;4.53;;;2.72;;
9541;SDS011;4809;48.224;8.572;2024-03-17T19:35:55;5.75;;;3.20;;
9541;SDS011;4809;48.224;8.572;2024-03-17T19:38:21;5.35;;;2.97;;
9541;SDS011;4809;48.224;8.572;2024-03-17T19:40:54;4.57;;;3.00;;
9541;SDS011;4809;48.224;8.572;2024-03-17T19:43:24;3.80;;;2.80;;
9541;SDS011;4809;48.224;8.572;2024-03-17T19:46:11;6.10;;;3.30;;
9541;SDS011;4809;48.224;8.572;2024-03-17T19:48:39;8.80;;;5.28;;
9541;SDS011;4809;48.224;8.572;2024-03-17T19:51:08;6.85;;;3.97;;
9541;SDS011;4809;48.224;8.572;2024-03-17T19:53:38;5.30;;;3.67;;
9541;SDS011;4809;48.224;8.572;2024-03-17T19:56:04;6.40;;;3.53;;
9541;SDS011;4809;48.224;8.572;2024-03-17T19:58:32;4.68;;;3.05;;
9541;SDS011;4809;48.224;8.572;2024-03-17T20:00:57;6.53;;;3.30;;
9541;SDS011;4809;48.224;8.572;2024-03-17T20:03:23;6.28;;;3.55;;
9541;SDS011;4809;48.224;8.572;2024-03-17T20:05:48;6.32;;;3.70;;
9541;SDS011;4809;48.224;8.572;2024-03-17T20:08:14;5.78;;;3.10;;
9541;SDS011;4809;48.224;8.572;2024-03-17T20:10:39;4.68;;;3.22;;
9541;SDS011;4809;48.224;8.572;2024-03-17T20:13:08;4.32;;;2.92;;
9541;SDS011;4809;48.224;8.572;2024-03-17T20:15:35;5.50;;;3.30;;
9541;SDS011;4809;48.224;8.572;2024-03-17T20:18:01;5.85;;;3.72;;
9541;SDS011;4809;48.224;8.572;2024-03-17T20:20:28;4.18;;;3.10;;
9541;SDS011;4809;48.224;8.572;2024-03-17T20:22:54;4.97;;;3.58;;
9541;SDS011;4809;48.224;8.572;2024-03-17T20:25:19;4.85;;;3.67;;
9541;SDS011;4809;48.224;8.572;2024-03-17T20:27:46;5.32;;;3.42;;
9541;SDS011;4809;48.224;8.572;2024-03-17T20:30:11;6.07;;;3.70;;
9541;SDS011;4809;48.224;8.572;2024-03-17T20:32:37;5.22;;;3.83;;
9541;SDS011;4809;48.224;8.572;2024-03-17T20:35:02;5.97;;;4.70;;
9541;SDS011;4809;48.224;8.572;2024-03-17T20:37:28;5.65;;;3.80;;
9541;SDS011;4809;48.224;8.572;2024-03-17T20:39:53;6.38;;;4.03;;
9541;SDS011;4809;48.224;8.572;2024-03-17T20:42:19;5.57;;;3.58;;
9541;SDS011;4809;48.224;8.572;2024-03-17T20:44:44;6.18;;;3.97;;
9541;SDS011;4809;48.224;8.572;2024-03-17T20:47:10;4.55;;;3.70;;
9541;SDS011;4809;48.224;8.572;2024-03-17T20:49:37;5.57;;;3.72;;
9541;SDS011;4809;48.224;8.572;2024-03-17T20:52:02;4.35;;;3.45;;
9541;SDS011;4809;48.224;8.572;2024-03-17T20:54:30;5.70;;;4.35;;
9541;SDS011;4809;48.224;8.572;2024-03-17T20:56:55;7.22;;;4.50;;
9541;SDS011;4809;48.224;8.572;2024-03-17T20:59:22;7.40;;;4.20;;
9541;SDS011;4809;48.224;8.572;2024-03-17T21:01:48;5.75;;;3.80;;
9541;SDS011;4809;48.224;8.572;2024-03-17T21:04:13;4.60;;;3.60;;
9541;SDS011;4809;48.224;8.572;2024-03-17T21:06:38;6.00;;;3.85;;
9541;SDS011;4809;48.224;8.572;2024-03-17T21:09:04;5.93;;;3.70;;
9541;SDS011;4809;48.224;8.572;2024-03-17T21:11:30;7.78;;;4.20;;
9541;SDS011;4809;48.224;8.572;2024-03-17T21:13:56;5.38;;;3.60;;
9541;SDS011;4809;48.224;8.572;2024-03-17T21:16:21;5.00;;;3.80;;
9541;SDS011;4809;48.224;8.572;2024-03-17T21:18:46;5.25;;;3.63;;
9541;SDS011;4809;48.224;8.572;2024-03-17T21:21:12;5.95;;;3.60;;
9541;SDS011;4809;48.224;8.572;2024-03-17T21:23:39;4.80;;;3.85;;
9541;SDS011;4809;48.224;8.572;2024-03-17T21:26:06;7.07;;;4.05;;
9541;SDS011;4809;48.224;8.572;2024-03-17T21:28:32;6.68;;;4.03;;
9541;SDS011;4809;48.224;8.572;2024-03-17T21:31:01;7.18;;;4.00;;
9541;SDS011;4809;48.224;8.572;2024-03-17T21:33:30;5.47;;;3.80;;
9541;SDS011;4809;48.224;8.572;2024-03-17T21:35:56;5.53;;;3.40;;
9541;SDS011;4809;48.224;8.572;2024-03-17T21:38:21;5.47;;;3.72;;
9541;SDS011;4809;48.224;8.572;2024-03-17T21:40:48;6.43;;;3.78;;
9541;SDS011;4809;48.224;8.572;2024-03-17T21:43:13;6.15;;;3.75;;
9541;SDS011;4809;48.224;8.572;2024-03-17T21:45:39;6.07;;;3.58;;
9541;SDS011;4809;48.224;8.572;2024-03-17T21:48:04;7.00;;;4.10;;
9541;SDS011;4809;48.224;8.572;2024-03-17T21:50:30;7.78;;;4.35;;
9541;SDS011;4809;48.224;8.572;2024-03-17T21:52:56;6.25;;;3.80;;
9541;SDS011;4809;48.224;8.572;2024-03-17T21:55:22;6.55;;;3.55;;
9541;SDS011;4809;48.224;8.572;2024-03-17T21:57:47;5.53;;;3.58;;
9541;SDS011;4809;48.224;8.572;2024-03-17T22:00:13;9.50;;;3.78;;
9541;SDS011;4809;48.224;8.572;2024-03-17T22:02:38;6.18;;;3.60;;
9541;SDS011;4809;48.224;8.572;2024-03-17T22:05:05;5.97;;;3.20;;
9541;SDS011;4809;48.224;8.572;2024-03-17T22:07:37;5.63;;;3.70;;
9541;SDS011;4809;48.224;8.572;2024-03-17T22:10:03;6.50;;;3.25;;
9541;SDS011;4809;48.224;8.572;2024-03-17T22:12:31;5.20;;;3.28;;
9541;SDS011;4809;48.224;8.572;2024-03-17T22:15:00;4.78;;;3.20;;
9541;SDS011;4809;48.224;8.572;2024-03-17T22:17:28;4.45;;;3.15;;
9541;SDS011;4809;48.224;8.572;2024-03-17T22:19:56;5.88;;;3.08;;
9541;SDS011;4809;48.224;8.572;2024-03-17T22:22:22;5.53;;;3.50;;
9541;SDS011;4809;48.224;8.572;2024-03-17T22:24:48;5.93;;;3.35;;
9541;SDS011;4809;48.224;8.572;2024-03-17T22:27:13;6.22;;;3.75;;
9541;SDS011;4809;48.224;8.572;2024-03-17T22:29:38;5.88;;;3.35;;
9541;SDS011;4809;48.224;8.572;2024-03-17T22:32:04;5.60;;;3.63;;
9541;SDS011;4809;48.224;8.572;2024-03-17T22:34:30;4.60;;;3.42;;
9541;SDS011;4809;48.224;8.572;2024-03-17T22:36:57;3.67;;;3.17;;
9541;SDS011;4809;48.224;8.572;2024-03-17T22:39:22;4.68;;;3.42;;
9541;SDS011;4809;48.224;8.572;2024-03-17T22:41:48;4.43;;;3.00;;
9541;SDS011;4809;48.224;8.572;2024-03-17T22:44:13;4.72;;;3.50;;
9541;SDS011;4809;48.224;8.572;2024-03-17T22:46:39;5.38;;;3.30;;
9541;SDS011;4809;48.224;8.572;2024-03-17T22:49:04;5.57;;;3.47;;
9541;SDS011;4809;48.224;8.572;2024-03-17T22:51:30;5.07;;;3.13;;
9541;SDS011;4809;48.224;8.572;2024-03-17T22:53:55;4.32;;;3.03;;
9541;SDS011;4809;48.224;8.572;2024-03-17T22:56:20;4.13;;;2.80;;
9541;SDS011;4809;48.224;8.572;2024-03-17T22:58:50;3.97;;;2.90;;
9541;SDS011;4809;48.224;8.572;2024-03-17T23:01:16;6.10;;;3.00;;
9541;SDS011;4809;48.224;8.572;2024-03-17T23:03:41;5.05;;;2.88;;
9541;SDS011;4809;48.224;8.572;2024-03-17T23:06:07;4.07;;;2.72;;
9541;SDS011;4809;48.224;8.572;2024-03-17T23:08:34;3.88;;;2.90;;
9541;SDS011;4809;48.224;8.572;2024-03-17T23:11:04;3.42;;;2.70;;
9541;SDS011;4809;48.224;8.572;2024-03-17T23:13:34;4.35;;;2.90;;
9541;SDS011;4809;48.224;8.572;2024-03-17T23:16:02;5.82;;;3.40;;
9541;SDS011;4809;48.224;8.572;2024-03-17T23:18:29;5.53;;;3.60;;
9541;SDS011;4809;48.224;8.572;2024-03-17T23:20:55;5.97;;;4.20;;
9541;SDS011;4809;48.224;8.572;2024-03-17T23:23:21;6.00;;;3.05;;
9541;SDS011;4809;48.224;8.572;2024-03-17T23:25:47;4.32;;;2.85;;
9541;SDS011;4809;48.224;8.572;2024-03-17T23:28:12;4.85;;;3.10;;
9541;SDS011;4809;48.224;8.572;2024-03-17T23:30:38;5.03;;;2.97;;
9541;SDS011;4809;48.224;8.572;2024-03-17T23:33:06;4.78;;;3.25;;
9541;SDS011;4809;48.224;8.572;2024-03-17T23:35:31;5.93;;;2.90;;
9541;SDS011;4809;48.224;8.572;2024-03-17T23:37:58;4.82;;;2.85;;
9541;SDS011;4809;48.224;8.572;2024-03-17T23:40:24;7.13;;;3.40;;
9541;SDS011;4809;48.224;8.572;2024-03-17T23:42:51;5.05;;;3.00;;
9541;SDS011;4809;48.224;8.572;2024-03-17T23:45:17;5.68;;;3.22;;
9541;SDS011;4809;48.224;8.572;2024-03-17T23:47:43;6.32;;;3.40;;
9541;SDS011;4809;48.224;8.572;2024-03-17T23:50:08;5.82;;;2.90;;
9541;SDS011;4809;48.224;8.572;2024-03-17T23:52:37;3.80;;;2.90;;
9541;SDS011;4809;48.224;8.572;2024-03-17T23:55:04;4.25;;;2.60;;
9541;SDS011;4809;48.224;8.572;2024-03-17T23:57:30;3.63;;;2.10;;
9541;SDS011;4809;48.224;8.572;2024-03-17T23:59:56;5.88;;;2.80;;
